sensor_id;sensor_type;location;lat;lon;timestamp;P1;durP1;ratioP1;P2;durP2;ratioP2
81176;SDS011;74095;48.270;14.200;2024-02-04T00:01:54;5.95;;;4.97;;
81176;SDS011;74095;48.270;14.200;2024-02-04T00:04:20;5.53;;;4.05;;
81176;SDS011;74095;48.270;14.200;2024-02-04T00:06:46;5.13;;;4.57;;
81176;SDS011;74095;48.270;14.200;2024-02-04T00:09:12;6.43;;;5.50;;
81176;SDS011;74095;48.270;14.200;2024-02-04T00:11:38;6.32;;;5.18;;
81176;SDS011;74095;48.270;14.200;2024-02-04T00:14:04;7.55;;;5.00;;
81176;SDS011;74095;48.270;14.200;2024-02-04T00:16:30;7.20;;;5.57;;
81176;SDS011;74095;48.270;14.200;2024-02-04T00:18:56;7.43;;;5.78;;
81176;SDS011;74095;48.270;14.200;2024-02-04T00:21:22;8.90;;;5.32;;
81176;SDS011;74095;48.270;14.200;2024-02-04T00:23:47;7.28;;;6.25;;
81176;SDS011;74095;48.270;14.200;2024-02-04T00:26:13;7.13;;;5.22;;
81176;SDS011;74095;48.270;14.200;2024-02-04T00:28:39;8.48;;;6.25;;
81176;SDS011;74095;48.270;14.200;2024-02-04T00:31:08;8.82;;;6.07;;
81176;SDS011;74095;48.270;14.200;2024-02-04T00:33:34;7.10;;;5.88;;
81176;SDS011;74095;48.270;14.200;2024-02-04T00:36:00;8.68;;;6.13;;
81176;SDS011;74095;48.270;14.200;2024-02-04T00:38:26;8.80;;;6.78;;
81176;SDS011;74095;48.270;14.200;2024-02-04T00:40:52;12.27;;;7.13;;
81176;SDS011;74095;48.270;14.200;2024-02-04T00:43:20;10.82;;;7.38;;
81176;SDS011;74095;48.270;14.200;2024-02-04T00:45:46;9.32;;;7.38;;
81176;SDS011;74095;48.270;14.200;2024-02-04T00:48:12;10.82;;;7.20;;
81176;SDS011;74095;48.270;14.200;2024-02-04T00:50:37;9.80;;;7.43;;
81176;SDS011;74095;48.270;14.200;2024-02-04T00:53:03;11.63;;;7.53;;
81176;SDS011;74095;48.270;14.200;2024-02-04T00:55:29;11.40;;;7.72;;
81176;SDS011;74095;48.270;14.200;2024-02-04T00:57:55;11.98;;;7.80;;
81176;SDS011;74095;48.270;14.200;2024-02-04T01:00:24;10.02;;;7.35;;
81176;SDS011;74095;48.270;14.200;2024-02-04T01:02:50;10.18;;;7.00;;
81176;SDS011;74095;48.270;14.200;2024-02-04T01:05:16;9.63;;;7.07;;
81176;SDS011;74095;48.270;14.200;2024-02-04T01:07:41;14.32;;;9.18;;
81176;SDS011;74095;48.270;14.200;2024-02-04T01:10:07;11.57;;;8.13;;
81176;SDS011;74095;48.270;14.200;2024-02-04T01:12:34;12.25;;;8.77;;
81176;SDS011;74095;48.270;14.200;2024-02-04T01:15:00;12.93;;;8.98;;
81176;SDS011;74095;48.270;14.200;2024-02-04T01:17:26;9.10;;;7.10;;
81176;SDS011;74095;48.270;14.200;2024-02-04T01:19:52;11.00;;;8.02;;
81176;SDS011;74095;48.270;14.200;2024-02-04T01:22:18;10.68;;;7.97;;
81176;SDS011;74095;48.270;14.200;2024-02-04T01:24:44;11.27;;;8.23;;
81176;SDS011;74095;48.270;14.200;2024-02-04T01:27:10;10.90;;;8.10;;
81176;SDS011;74095;48.270;14.200;2024-02-04T01:29:36;12.23;;;7.60;;
81176;SDS011;74095;48.270;14.200;2024-02-04T01:32:02;11.50;;;8.35;;
81176;SDS011;74095;48.270;14.200;2024-02-04T01:34:28;12.95;;;8.25;;
81176;SDS011;74095;48.270;14.200;2024-02-04T01:36:53;10.50;;;7.63;;
81176;SDS011;74095;48.270;14.200;2024-02-04T01:39:19;11.90;;;8.60;;
81176;SDS011;74095;48.270;14.200;2024-02-04T01:41:45;11.65;;;7.53;;
81176;SDS011;74095;48.270;14.200;2024-02-04T01:44:11;10.45;;;7.68;;
81176;SDS011;74095;48.270;14.200;2024-02-04T01:46:37;10.30;;;8.10;;
81176;SDS011;74095;48.270;14.200;2024-02-04T01:49:03;10.60;;;6.93;;
81176;SDS011;74095;48.270;14.200;2024-02-04T01:51:29;9.95;;;7.47;;
81176;SDS011;74095;48.270;14.200;2024-02-04T01:53:55;11.23;;;8.30;;
81176;SDS011;74095;48.270;14.200;2024-02-04T01:56:21;11.95;;;8.65;;
81176;SDS011;74095;48.270;14.200;2024-02-04T01:58:47;12.77;;;8.30;;
81176;SDS011;74095;48.270;14.200;2024-02-04T02:01:14;11.35;;;7.57;;
81176;SDS011;74095;48.270;14.200;2024-02-04T02:03:41;10.02;;;7.32;;
81176;SDS011;74095;48.270;14.200;2024-02-04T02:06:06;9.90;;;7.15;;
81176;SDS011;74095;48.270;14.200;2024-02-04T02:08:33;9.52;;;7.05;;
81176;SDS011;74095;48.270;14.200;2024-02-04T02:11:02;10.93;;;7.38;;
81176;SDS011;74095;48.270;14.200;2024-02-04T02:13:47;9.55;;;7.47;;
81176;SDS011;74095;48.270;14.200;2024-02-04T02:16:19;10.35;;;7.43;;
81176;SDS011;74095;48.270;14.200;2024-02-04T02:18:49;11.00;;;7.85;;
81176;SDS011;74095;48.270;14.200;2024-02-04T02:21:25;10.02;;;7.85;;
81176;SDS011;74095;48.270;14.200;2024-02-04T02:26:38;9.10;;;6.68;;
81176;SDS011;74095;48.270;14.200;2024-02-04T02:29:05;11.75;;;8.45;;
81176;SDS011;74095;48.270;14.200;2024-02-04T02:31:37;9.63;;;8.02;;
81176;SDS011;74095;48.270;14.200;2024-02-04T02:34:04;10.77;;;8.23;;
81176;SDS011;74095;48.270;14.200;2024-02-04T02:36:41;11.07;;;8.55;;
81176;SDS011;74095;48.270;14.200;2024-02-04T02:39:15;11.32;;;8.27;;
81176;SDS011;74095;48.270;14.200;2024-02-04T02:41:49;10.82;;;8.52;;
81176;SDS011;74095;48.270;14.200;2024-02-04T02:44:19;11.77;;;8.68;;
81176;SDS011;74095;48.270;14.200;2024-02-04T02:46:46;12.65;;;9.20;;
81176;SDS011;74095;48.270;14.200;2024-02-04T02:49:13;9.40;;;7.07;;
81176;SDS011;74095;48.270;14.200;2024-02-04T02:51:39;12.05;;;8.38;;
81176;SDS011;74095;48.270;14.200;2024-02-04T02:54:05;10.40;;;7.95;;
81176;SDS011;74095;48.270;14.200;2024-02-04T02:56:31;12.48;;;8.73;;
81176;SDS011;74095;48.270;14.200;2024-02-04T02:58:57;10.48;;;7.90;;
81176;SDS011;74095;48.270;14.200;2024-02-04T03:01:23;12.10;;;8.98;;
81176;SDS011;74095;48.270;14.200;2024-02-04T03:03:52;11.80;;;8.48;;
81176;SDS011;74095;48.270;14.200;2024-02-04T03:06:19;14.15;;;10.20;;
81176;SDS011;74095;48.270;14.200;2024-02-04T03:08:45;12.95;;;8.43;;
81176;SDS011;74095;48.270;14.200;2024-02-04T03:11:13;11.52;;;7.88;;
81176;SDS011;74095;48.270;14.200;2024-02-04T03:13:39;10.55;;;7.95;;
81176;SDS011;74095;48.270;14.200;2024-02-04T03:16:12;13.93;;;8.93;;
81176;SDS011;74095;48.270;14.200;2024-02-04T03:18:41;14.70;;;10.13;;
81176;SDS011;74095;48.270;14.200;2024-02-04T03:21:12;13.07;;;10.20;;
81176;SDS011;74095;48.270;14.200;2024-02-04T03:23:45;12.98;;;10.15;;
81176;SDS011;74095;48.270;14.200;2024-02-04T03:26:17;12.00;;;8.77;;
81176;SDS011;74095;48.270;14.200;2024-02-04T03:28:46;13.23;;;9.77;;
81176;SDS011;74095;48.270;14.200;2024-02-04T03:31:24;12.88;;;9.98;;
81176;SDS011;74095;48.270;14.200;2024-02-04T03:33:53;11.57;;;8.57;;
81176;SDS011;74095;48.270;14.200;2024-02-04T03:36:23;12.70;;;9.20;;
81176;SDS011;74095;48.270;14.200;2024-02-04T03:38:54;14.27;;;9.75;;
81176;SDS011;74095;48.270;14.200;2024-02-04T03:41:22;11.80;;;9.23;;
81176;SDS011;74095;48.270;14.200;2024-02-04T03:43:51;14.35;;;10.13;;
81176;SDS011;74095;48.270;14.200;2024-02-04T03:46:22;14.63;;;11.20;;
81176;SDS011;74095;48.270;14.200;2024-02-04T03:48:53;14.02;;;10.20;;
81176;SDS011;74095;48.270;14.200;2024-02-04T03:51:21;14.43;;;9.88;;
81176;SDS011;74095;48.270;14.200;2024-02-04T03:53:51;14.80;;;11.13;;
81176;SDS011;74095;48.270;14.200;2024-02-04T03:56:22;15.35;;;11.10;;
81176;SDS011;74095;48.270;14.200;2024-02-04T03:58:51;14.35;;;9.98;;
81176;SDS011;74095;48.270;14.200;2024-02-04T04:01:20;14.90;;;11.02;;
81176;SDS011;74095;48.270;14.200;2024-02-04T04:03:50;15.43;;;10.90;;
81176;SDS011;74095;48.270;14.200;2024-02-04T04:06:18;14.77;;;10.07;;
81176;SDS011;74095;48.270;14.200;2024-02-04T04:08:47;16.42;;;11.63;;
81176;SDS011;74095;48.270;14.200;2024-02-04T04:11:17;13.68;;;10.75;;
81176;SDS011;74095;48.270;14.200;2024-02-04T04:13:49;13.48;;;9.90;;
81176;SDS011;74095;48.270;14.200;2024-02-04T04:16:21;14.50;;;10.25;;
81176;SDS011;74095;48.270;14.200;2024-02-04T04:18:51;14.77;;;9.80;;
81176;SDS011;74095;48.270;14.200;2024-02-04T04:21:21;15.40;;;11.25;;
81176;SDS011;74095;48.270;14.200;2024-02-04T04:23:50;15.18;;;11.15;;
81176;SDS011;74095;48.270;14.200;2024-02-04T04:26:18;17.08;;;11.15;;
81176;SDS011;74095;48.270;14.200;2024-02-04T04:28:47;12.23;;;9.25;;
81176;SDS011;74095;48.270;14.200;2024-02-04T04:31:18;14.23;;;9.70;;
81176;SDS011;74095;48.270;14.200;2024-02-04T04:33:47;14.75;;;9.23;;
81176;SDS011;74095;48.270;14.200;2024-02-04T04:36:20;11.70;;;8.63;;
81176;SDS011;74095;48.270;14.200;2024-02-04T04:38:50;14.20;;;9.18;;
81176;SDS011;74095;48.270;14.200;2024-02-04T04:41:21;13.15;;;9.23;;
81176;SDS011;74095;48.270;14.200;2024-02-04T04:43:50;14.32;;;9.57;;
81176;SDS011;74095;48.270;14.200;2024-02-04T04:46:20;13.10;;;9.25;;
81176;SDS011;74095;48.270;14.200;2024-02-04T04:48:49;13.13;;;9.60;;
81176;SDS011;74095;48.270;14.200;2024-02-04T04:51:18;11.95;;;9.35;;
81176;SDS011;74095;48.270;14.200;2024-02-04T04:53:47;10.82;;;7.93;;
81176;SDS011;74095;48.270;14.200;2024-02-04T04:56:16;11.90;;;8.65;;
81176;SDS011;74095;48.270;14.200;2024-02-04T04:58:47;11.32;;;8.30;;
81176;SDS011;74095;48.270;14.200;2024-02-04T05:01:19;13.23;;;8.80;;
81176;SDS011;74095;48.270;14.200;2024-02-04T05:03:48;9.82;;;7.68;;
81176;SDS011;74095;48.270;14.200;2024-02-04T05:06:18;10.50;;;6.85;;
81176;SDS011;74095;48.270;14.200;2024-02-04T05:08:47;11.50;;;8.27;;
81176;SDS011;74095;48.270;14.200;2024-02-04T05:11:17;10.55;;;7.93;;
81176;SDS011;74095;48.270;14.200;2024-02-04T05:13:49;10.80;;;7.53;;
81176;SDS011;74095;48.270;14.200;2024-02-04T05:16:19;9.68;;;7.53;;
81176;SDS011;74095;48.270;14.200;2024-02-04T05:18:47;9.32;;;6.70;;
81176;SDS011;74095;48.270;14.200;2024-02-04T05:21:17;7.43;;;5.20;;
81176;SDS011;74095;48.270;14.200;2024-02-04T05:23:47;8.18;;;5.88;;
81176;SDS011;74095;48.270;14.200;2024-02-04T05:26:19;7.50;;;5.88;;
81176;SDS011;74095;48.270;14.200;2024-02-04T05:28:49;9.30;;;6.13;;
81176;SDS011;74095;48.270;14.200;2024-02-04T05:31:20;8.23;;;5.18;;
81176;SDS011;74095;48.270;14.200;2024-02-04T05:33:51;8.18;;;5.68;;
81176;SDS011;74095;48.270;14.200;2024-02-04T05:36:22;7.90;;;5.53;;
81176;SDS011;74095;48.270;14.200;2024-02-04T05:38:52;6.68;;;5.10;;
81176;SDS011;74095;48.270;14.200;2024-02-04T05:41:23;7.00;;;4.78;;
81176;SDS011;74095;48.270;14.200;2024-02-04T05:43:52;7.80;;;5.25;;
81176;SDS011;74095;48.270;14.200;2024-02-04T05:46:24;6.15;;;4.30;;
81176;SDS011;74095;48.270;14.200;2024-02-04T05:48:56;6.47;;;4.93;;
81176;SDS011;74095;48.270;14.200;2024-02-04T05:51:28;7.70;;;5.10;;
81176;SDS011;74095;48.270;14.200;2024-02-04T05:54:07;9.13;;;5.07;;
81176;SDS011;74095;48.270;14.200;2024-02-04T05:56:39;6.53;;;4.97;;
81176;SDS011;74095;48.270;14.200;2024-02-04T05:59:08;5.78;;;4.47;;
81176;SDS011;74095;48.270;14.200;2024-02-04T06:01:43;6.57;;;4.25;;
81176;SDS011;74095;48.270;14.200;2024-02-04T06:04:13;6.55;;;5.32;;
81176;SDS011;74095;48.270;14.200;2024-02-04T06:06:44;7.25;;;4.50;;
81176;SDS011;74095;48.270;14.200;2024-02-04T06:09:15;6.05;;;4.43;;
81176;SDS011;74095;48.270;14.200;2024-02-04T06:11:47;6.57;;;4.63;;
81176;SDS011;74095;48.270;14.200;2024-02-04T06:14:18;6.85;;;4.88;;
81176;SDS011;74095;48.270;14.200;2024-02-04T06:16:48;6.47;;;4.65;;
81176;SDS011;74095;48.270;14.200;2024-02-04T06:19:18;8.32;;;5.60;;
81176;SDS011;74095;48.270;14.200;2024-02-04T06:21:50;5.88;;;4.80;;
81176;SDS011;74095;48.270;14.200;2024-02-04T06:24:20;6.15;;;4.32;;
81176;SDS011;74095;48.270;14.200;2024-02-04T06:26:49;6.05;;;4.80;;
81176;SDS011;74095;48.270;14.200;2024-02-04T06:29:21;6.13;;;4.55;;
81176;SDS011;74095;48.270;14.200;2024-02-04T06:31:52;5.60;;;4.25;;
81176;SDS011;74095;48.270;14.200;2024-02-04T06:34:24;4.43;;;4.00;;
81176;SDS011;74095;48.270;14.200;2024-02-04T06:36:55;5.45;;;4.45;;
81176;SDS011;74095;48.270;14.200;2024-02-04T06:39:23;5.32;;;4.20;;
81176;SDS011;74095;48.270;14.200;2024-02-04T06:41:53;4.55;;;3.67;;
81176;SDS011;74095;48.270;14.200;2024-02-04T06:44:24;4.80;;;3.75;;
81176;SDS011;74095;48.270;14.200;2024-02-04T06:46:56;4.45;;;3.78;;
81176;SDS011;74095;48.270;14.200;2024-02-04T06:49:26;5.15;;;3.85;;
81176;SDS011;74095;48.270;14.200;2024-02-04T06:51:58;4.63;;;3.97;;
81176;SDS011;74095;48.270;14.200;2024-02-04T06:54:30;4.50;;;3.25;;
81176;SDS011;74095;48.270;14.200;2024-02-04T06:57:02;5.47;;;3.47;;
81176;SDS011;74095;48.270;14.200;2024-02-04T06:59:37;6.20;;;4.15;;
81176;SDS011;74095;48.270;14.200;2024-02-04T07:02:08;4.53;;;3.17;;
81176;SDS011;74095;48.270;14.200;2024-02-04T07:04:38;3.90;;;2.97;;
81176;SDS011;74095;48.270;14.200;2024-02-04T07:07:09;4.20;;;3.33;;
81176;SDS011;74095;48.270;14.200;2024-02-04T07:09:37;4.15;;;3.58;;
81176;SDS011;74095;48.270;14.200;2024-02-04T07:12:07;4.55;;;3.60;;
81176;SDS011;74095;48.270;14.200;2024-02-04T07:14:39;4.55;;;3.55;;
81176;SDS011;74095;48.270;14.200;2024-02-04T07:17:07;4.63;;;3.72;;
81176;SDS011;74095;48.270;14.200;2024-02-04T07:19:38;6.40;;;4.75;;
81176;SDS011;74095;48.270;14.200;2024-02-04T07:22:09;4.65;;;3.90;;
81176;SDS011;74095;48.270;14.200;2024-02-04T07:24:39;5.15;;;3.92;;
81176;SDS011;74095;48.270;14.200;2024-02-04T07:27:10;5.10;;;3.97;;
81176;SDS011;74095;48.270;14.200;2024-02-04T07:29:42;7.25;;;5.15;;
81176;SDS011;74095;48.270;14.200;2024-02-04T07:32:11;5.38;;;3.50;;
81176;SDS011;74095;48.270;14.200;2024-02-04T07:34:44;4.38;;;3.30;;
81176;SDS011;74095;48.270;14.200;2024-02-04T07:37:16;4.03;;;2.63;;
81176;SDS011;74095;48.270;14.200;2024-02-04T07:39:46;5.97;;;4.32;;
81176;SDS011;74095;48.270;14.200;2024-02-04T07:42:16;5.00;;;4.22;;
81176;SDS011;74095;48.270;14.200;2024-02-04T07:44:47;5.07;;;3.90;;
81176;SDS011;74095;48.270;14.200;2024-02-04T07:47:19;5.45;;;4.95;;
81176;SDS011;74095;48.270;14.200;2024-02-04T07:49:50;4.47;;;3.33;;
81176;SDS011;74095;48.270;14.200;2024-02-04T07:52:20;4.38;;;3.85;;
81176;SDS011;74095;48.270;14.200;2024-02-04T07:54:50;4.85;;;4.05;;
81176;SDS011;74095;48.270;14.200;2024-02-04T07:57:16;4.80;;;4.00;;
81176;SDS011;74095;48.270;14.200;2024-02-04T07:59:42;5.30;;;4.03;;
81176;SDS011;74095;48.270;14.200;2024-02-04T08:02:08;6.38;;;4.35;;
81176;SDS011;74095;48.270;14.200;2024-02-04T08:04:33;5.95;;;4.60;;
81176;SDS011;74095;48.270;14.200;2024-02-04T08:06:59;4.70;;;4.00;;
81176;SDS011;74095;48.270;14.200;2024-02-04T08:09:26;5.97;;;4.38;;
81176;SDS011;74095;48.270;14.200;2024-02-04T08:11:51;4.85;;;3.78;;
81176;SDS011;74095;48.270;14.200;2024-02-04T08:14:17;4.45;;;3.50;;
81176;SDS011;74095;48.270;14.200;2024-02-04T08:16:44;5.15;;;4.20;;
81176;SDS011;74095;48.270;14.200;2024-02-04T08:19:12;4.82;;;4.10;;
81176;SDS011;74095;48.270;14.200;2024-02-04T08:21:39;5.95;;;5.10;;
81176;SDS011;74095;48.270;14.200;2024-02-04T08:24:05;4.72;;;4.22;;
81176;SDS011;74095;48.270;14.200;2024-02-04T08:26:31;4.53;;;3.90;;
81176;SDS011;74095;48.270;14.200;2024-02-04T08:28:57;4.82;;;4.32;;
81176;SDS011;74095;48.270;14.200;2024-02-04T08:31:23;6.97;;;6.07;;
81176;SDS011;74095;48.270;14.200;2024-02-04T08:33:48;4.10;;;3.40;;
81176;SDS011;74095;48.270;14.200;2024-02-04T08:36:14;4.80;;;3.75;;
81176;SDS011;74095;48.270;14.200;2024-02-04T08:38:41;5.25;;;3.53;;
81176;SDS011;74095;48.270;14.200;2024-02-04T08:41:07;5.85;;;3.45;;
81176;SDS011;74095;48.270;14.200;2024-02-04T08:43:32;4.90;;;3.50;;
81176;SDS011;74095;48.270;14.200;2024-02-04T08:45:58;5.20;;;4.13;;
81176;SDS011;74095;48.270;14.200;2024-02-04T08:48:24;5.60;;;4.13;;
81176;SDS011;74095;48.270;14.200;2024-02-04T08:50:50;5.03;;;3.90;;
81176;SDS011;74095;48.270;14.200;2024-02-04T08:53:16;9.75;;;4.90;;
81176;SDS011;74095;48.270;14.200;2024-02-04T08:55:42;9.38;;;5.38;;
81176;SDS011;74095;48.270;14.200;2024-02-04T08:58:08;5.40;;;4.13;;
81176;SDS011;74095;48.270;14.200;2024-02-04T09:00:34;5.15;;;3.83;;
81176;SDS011;74095;48.270;14.200;2024-02-04T09:02:59;3.85;;;2.85;;
81176;SDS011;74095;48.270;14.200;2024-02-04T09:05:25;5.65;;;3.40;;
81176;SDS011;74095;48.270;14.200;2024-02-04T09:07:51;4.45;;;3.00;;
81176;SDS011;74095;48.270;14.200;2024-02-04T09:10:17;3.95;;;3.40;;
81176;SDS011;74095;48.270;14.200;2024-02-04T09:12:43;3.65;;;2.70;;
81176;SDS011;74095;48.270;14.200;2024-02-04T09:15:09;5.45;;;3.42;;
81176;SDS011;74095;48.270;14.200;2024-02-04T09:17:35;4.10;;;2.47;;
81176;SDS011;74095;48.270;14.200;2024-02-04T09:20:01;3.88;;;2.90;;
81176;SDS011;74095;48.270;14.200;2024-02-04T09:22:28;3.92;;;2.90;;
81176;SDS011;74095;48.270;14.200;2024-02-04T09:24:53;6.75;;;3.75;;
81176;SDS011;74095;48.270;14.200;2024-02-04T09:27:19;3.40;;;2.63;;
81176;SDS011;74095;48.270;14.200;2024-02-04T09:29:45;4.28;;;3.30;;
81176;SDS011;74095;48.270;14.200;2024-02-04T09:32:11;4.75;;;2.90;;
81176;SDS011;74095;48.270;14.200;2024-02-04T09:34:37;4.93;;;2.97;;
81176;SDS011;74095;48.270;14.200;2024-02-04T09:37:03;4.00;;;3.17;;
81176;SDS011;74095;48.270;14.200;2024-02-04T09:39:29;4.32;;;2.80;;
81176;SDS011;74095;48.270;14.200;2024-02-04T09:41:55;3.85;;;2.78;;
81176;SDS011;74095;48.270;14.200;2024-02-04T09:44:22;3.38;;;2.50;;
81176;SDS011;74095;48.270;14.200;2024-02-04T09:46:49;3.67;;;2.83;;
81176;SDS011;74095;48.270;14.200;2024-02-04T09:49:15;3.90;;;2.40;;
81176;SDS011;74095;48.270;14.200;2024-02-04T09:51:41;2.95;;;2.20;;
81176;SDS011;74095;48.270;14.200;2024-02-04T09:54:08;3.20;;;2.17;;
81176;SDS011;74095;48.270;14.200;2024-02-04T09:56:35;2.78;;;2.40;;
81176;SDS011;74095;48.270;14.200;2024-02-04T09:59:03;2.67;;;2.25;;
81176;SDS011;74095;48.270;14.200;2024-02-04T10:01:30;3.03;;;1.95;;
81176;SDS011;74095;48.270;14.200;2024-02-04T10:03:57;3.90;;;2.28;;
81176;SDS011;74095;48.270;14.200;2024-02-04T10:06:23;2.55;;;1.55;;
81176;SDS011;74095;48.270;14.200;2024-02-04T10:08:50;3.55;;;2.10;;
81176;SDS011;74095;48.270;14.200;2024-02-04T10:11:16;4.20;;;2.17;;
81176;SDS011;74095;48.270;14.200;2024-02-04T10:13:44;4.20;;;2.30;;
81176;SDS011;74095;48.270;14.200;2024-02-04T10:16:14;2.78;;;2.17;;
81176;SDS011;74095;48.270;14.200;2024-02-04T10:18:41;3.35;;;2.03;;
81176;SDS011;74095;48.270;14.200;2024-02-04T10:21:15;2.63;;;2.13;;
81176;SDS011;74095;48.270;14.200;2024-02-04T10:23:43;4.47;;;2.30;;
81176;SDS011;74095;48.270;14.200;2024-02-04T10:26:09;2.05;;;1.58;;
81176;SDS011;74095;48.270;14.200;2024-02-04T10:28:36;4.55;;;1.92;;
81176;SDS011;74095;48.270;14.200;2024-02-04T10:31:03;3.85;;;2.22;;
81176;SDS011;74095;48.270;14.200;2024-02-04T10:33:32;3.63;;;2.00;;
81176;SDS011;74095;48.270;14.200;2024-02-04T10:35:57;3.40;;;1.80;;
81176;SDS011;74095;48.270;14.200;2024-02-04T10:38:23;4.50;;;2.25;;
81176;SDS011;74095;48.270;14.200;2024-02-04T10:40:53;3.03;;;1.90;;
81176;SDS011;74095;48.270;14.200;2024-02-04T10:43:20;3.85;;;2.20;;
81176;SDS011;74095;48.270;14.200;2024-02-04T10:45:46;2.65;;;2.08;;
81176;SDS011;74095;48.270;14.200;2024-02-04T10:48:14;3.00;;;2.00;;
81176;SDS011;74095;48.270;14.200;2024-02-04T10:50:46;2.78;;;2.08;;
81176;SDS011;74095;48.270;14.200;2024-02-04T10:53:16;2.45;;;1.83;;
81176;SDS011;74095;48.270;14.200;2024-02-04T10:55:46;2.97;;;2.17;;
81176;SDS011;74095;48.270;14.200;2024-02-04T10:58:12;2.53;;;1.90;;
81176;SDS011;74095;48.270;14.200;2024-02-04T11:00:42;3.08;;;2.10;;
81176;SDS011;74095;48.270;14.200;2024-02-04T11:03:08;4.03;;;2.13;;
81176;SDS011;74095;48.270;14.200;2024-02-04T11:05:38;3.60;;;2.03;;
81176;SDS011;74095;48.270;14.200;2024-02-04T11:08:07;3.50;;;2.17;;
81176;SDS011;74095;48.270;14.200;2024-02-04T11:10:35;3.00;;;2.00;;
81176;SDS011;74095;48.270;14.200;2024-02-04T11:13:02;2.65;;;1.80;;
81176;SDS011;74095;48.270;14.200;2024-02-04T11:15:32;3.10;;;2.30;;
81176;SDS011;74095;48.270;14.200;2024-02-04T11:23:46;2.80;;;1.50;;
81176;SDS011;74095;48.270;14.200;2024-02-04T11:26:26;3.83;;;2.00;;
81176;SDS011;74095;48.270;14.200;2024-02-04T11:28:52;2.75;;;1.90;;
81176;SDS011;74095;48.270;14.200;2024-02-04T11:31:18;2.03;;;1.58;;
81176;SDS011;74095;48.270;14.200;2024-02-04T11:33:45;3.10;;;1.60;;
81176;SDS011;74095;48.270;14.200;2024-02-04T11:36:14;2.60;;;1.80;;
81176;SDS011;74095;48.270;14.200;2024-02-04T11:38:43;2.72;;;1.80;;
81176;SDS011;74095;48.270;14.200;2024-02-04T11:41:21;2.90;;;1.83;;
81176;SDS011;74095;48.270;14.200;2024-02-04T11:43:53;2.85;;;1.75;;
81176;SDS011;74095;48.270;14.200;2024-02-04T11:46:20;3.50;;;1.90;;
81176;SDS011;74095;48.270;14.200;2024-02-04T11:48:53;3.17;;;2.20;;
81176;SDS011;74095;48.270;14.200;2024-02-04T11:51:21;2.22;;;1.65;;
81176;SDS011;74095;48.270;14.200;2024-02-04T11:53:48;2.97;;;1.98;;
81176;SDS011;74095;48.270;14.200;2024-02-04T11:56:15;3.20;;;1.77;;
81176;SDS011;74095;48.270;14.200;2024-02-04T11:58:40;2.25;;;1.75;;
81176;SDS011;74095;48.270;14.200;2024-02-04T12:01:09;3.95;;;1.95;;
81176;SDS011;74095;48.270;14.200;2024-02-04T12:03:36;2.80;;;1.92;;
81176;SDS011;74095;48.270;14.200;2024-02-04T12:06:03;3.25;;;1.77;;
81176;SDS011;74095;48.270;14.200;2024-02-04T12:08:30;2.38;;;1.40;;
81176;SDS011;74095;48.270;14.200;2024-02-04T12:10:57;2.33;;;1.65;;
81176;SDS011;74095;48.270;14.200;2024-02-04T12:13:26;2.80;;;1.70;;
81176;SDS011;74095;48.270;14.200;2024-02-04T12:15:53;3.63;;;1.40;;
81176;SDS011;74095;48.270;14.200;2024-02-04T12:18:19;2.47;;;1.50;;
81176;SDS011;74095;48.270;14.200;2024-02-04T12:20:46;2.10;;;1.42;;
81176;SDS011;74095;48.270;14.200;2024-02-04T12:23:16;2.20;;;1.25;;
81176;SDS011;74095;48.270;14.200;2024-02-04T12:25:44;2.83;;;1.30;;
81176;SDS011;74095;48.270;14.200;2024-02-04T12:28:10;3.83;;;1.20;;
81176;SDS011;74095;48.270;14.200;2024-02-04T12:30:36;1.98;;;1.10;;
81176;SDS011;74095;48.270;14.200;2024-02-04T12:33:02;1.33;;;1.10;;
81176;SDS011;74095;48.270;14.200;2024-02-04T12:35:30;2.05;;;1.30;;
81176;SDS011;74095;48.270;14.200;2024-02-04T12:37:57;2.40;;;1.23;;
81176;SDS011;74095;48.270;14.200;2024-02-04T12:40:25;2.45;;;1.05;;
81176;SDS011;74095;48.270;14.200;2024-02-04T12:42:57;1.67;;;1.10;;
81176;SDS011;74095;48.270;14.200;2024-02-04T12:45:26;1.70;;;1.20;;
81176;SDS011;74095;48.270;14.200;2024-02-04T12:47:52;1.85;;;1.10;;
81176;SDS011;74095;48.270;14.200;2024-02-04T12:50:19;1.40;;;1.20;;
81176;SDS011;74095;48.270;14.200;2024-02-04T12:52:49;1.60;;;1.15;;
81176;SDS011;74095;48.270;14.200;2024-02-04T12:55:27;1.70;;;1.02;;
81176;SDS011;74095;48.270;14.200;2024-02-04T13:00:34;3.38;;;1.50;;
81176;SDS011;74095;48.270;14.200;2024-02-04T13:03:03;2.13;;;1.42;;
81176;SDS011;74095;48.270;14.200;2024-02-04T13:05:29;2.08;;;1.10;;
81176;SDS011;74095;48.270;14.200;2024-02-04T13:07:59;3.03;;;1.50;;
81176;SDS011;74095;48.270;14.200;2024-02-04T13:10:30;1.90;;;1.60;;
81176;SDS011;74095;48.270;14.200;2024-02-04T13:13:03;3.03;;;1.30;;
81176;SDS011;74095;48.270;14.200;2024-02-04T13:15:32;2.35;;;1.50;;
81176;SDS011;74095;48.270;14.200;2024-02-04T13:18:00;2.30;;;1.17;;
81176;SDS011;74095;48.270;14.200;2024-02-04T13:20:26;1.67;;;1.20;;
81176;SDS011;74095;48.270;14.200;2024-02-04T13:22:52;2.15;;;1.20;;
81176;SDS011;74095;48.270;14.200;2024-02-04T13:25:21;1.90;;;1.17;;
81176;SDS011;74095;48.270;14.200;2024-02-04T13:27:47;1.52;;;1.13;;
81176;SDS011;74095;48.270;14.200;2024-02-04T13:30:15;2.38;;;1.27;;
81176;SDS011;74095;48.270;14.200;2024-02-04T13:32:42;1.73;;;1.40;;
81176;SDS011;74095;48.270;14.200;2024-02-04T13:35:09;2.22;;;1.05;;
81176;SDS011;74095;48.270;14.200;2024-02-04T13:37:38;1.58;;;0.95;;
81176;SDS011;74095;48.270;14.200;2024-02-04T13:40:05;2.10;;;1.58;;
81176;SDS011;74095;48.270;14.200;2024-02-04T13:42:32;3.05;;;1.33;;
81176;SDS011;74095;48.270;14.200;2024-02-04T13:45:00;1.88;;;1.10;;
81176;SDS011;74095;48.270;14.200;2024-02-04T13:47:27;1.40;;;1.00;;
81176;SDS011;74095;48.270;14.200;2024-02-04T13:49:53;1.73;;;1.00;;
81176;SDS011;74095;48.270;14.200;2024-02-04T13:52:20;1.88;;;1.25;;
81176;SDS011;74095;48.270;14.200;2024-02-04T13:54:46;1.88;;;1.05;;
81176;SDS011;74095;48.270;14.200;2024-02-04T13:57:12;1.27;;;0.90;;
81176;SDS011;74095;48.270;14.200;2024-02-04T13:59:38;1.38;;;0.95;;
81176;SDS011;74095;48.270;14.200;2024-02-04T14:02:04;1.77;;;1.20;;
81176;SDS011;74095;48.270;14.200;2024-02-04T14:04:30;1.35;;;1.00;;
81176;SDS011;74095;48.270;14.200;2024-02-04T14:06:57;1.75;;;1.10;;
81176;SDS011;74095;48.270;14.200;2024-02-04T14:09:23;1.85;;;1.10;;
81176;SDS011;74095;48.270;14.200;2024-02-04T14:11:49;1.63;;;1.10;;
81176;SDS011;74095;48.270;14.200;2024-02-04T14:14:14;1.25;;;0.82;;
81176;SDS011;74095;48.270;14.200;2024-02-04T14:16:40;1.58;;;0.98;;
81176;SDS011;74095;48.270;14.200;2024-02-04T14:19:06;1.05;;;0.75;;
81176;SDS011;74095;48.270;14.200;2024-02-04T14:21:32;1.58;;;0.93;;
81176;SDS011;74095;48.270;14.200;2024-02-04T14:23:58;1.70;;;0.98;;
81176;SDS011;74095;48.270;14.200;2024-02-04T14:26:24;1.80;;;1.25;;
81176;SDS011;74095;48.270;14.200;2024-02-04T14:28:50;1.88;;;1.00;;
81176;SDS011;74095;48.270;14.200;2024-02-04T14:31:16;1.38;;;1.00;;
81176;SDS011;74095;48.270;14.200;2024-02-04T14:33:42;1.08;;;0.80;;
81176;SDS011;74095;48.270;14.200;2024-02-04T14:36:08;2.70;;;0.98;;
81176;SDS011;74095;48.270;14.200;2024-02-04T14:38:35;1.40;;;1.00;;
81176;SDS011;74095;48.270;14.200;2024-02-04T14:41:04;2.17;;;1.20;;
81176;SDS011;74095;48.270;14.200;2024-02-04T14:43:30;1.92;;;1.30;;
81176;SDS011;74095;48.270;14.200;2024-02-04T14:45:56;1.42;;;1.00;;
81176;SDS011;74095;48.270;14.200;2024-02-04T14:48:22;1.45;;;1.00;;